createdAt,value
2019-05-13T00:00:06.702Z,101307.30
2019-05-13T00:04:27.044Z,101307.70
2019-05-13T00:08:47.885Z,101316.92
2019-05-13T00:13:09.187Z,101311.72
2019-05-13T00:17:29.960Z,101325.14
2019-05-13T00:21:51.208Z,101329.86
2019-05-13T00:26:13.969Z,101323.78
2019-05-13T00:30:34.536Z,101322.52
2019-05-13T00:34:55.434Z,101321.58
2019-05-13T00:39:15.870Z,101311.92
2019-05-13T00:43:36.430Z,101324.37
2019-05-13T00:47:57.217Z,101312.45
2019-05-13T00:52:17.601Z,101321.00
2019-05-13T00:56:37.879Z,101320.16
2019-05-13T01:00:58.490Z,101306.53
2019-05-13T01:05:19.284Z,101315.71
2019-05-13T01:09:40.049Z,101315.13
2019-05-13T01:14:00.672Z,101309.30
2019-05-13T01:18:23.289Z,101315.52
2019-05-13T01:22:44.270Z,101320.34
2019-05-13T01:27:04.633Z,101320.41
2019-05-13T01:31:25.431Z,101317.17
2019-05-13T01:35:45.854Z,101314.00
2019-05-13T01:40:06.885Z,101322.80
2019-05-13T01:44:27.684Z,101323.28
2019-05-13T01:48:48.921Z,101319.20
2019-05-13T01:53:09.373Z,101318.18
2019-05-13T01:57:29.897Z,101326.60
2019-05-13T02:01:51.124Z,101328.03
2019-05-13T02:06:14.042Z,101327.54
2019-05-13T02:10:34.362Z,101327.81
2019-05-13T02:14:55.040Z,101330.23
2019-05-13T02:19:16.064Z,101342.13
2019-05-13T02:23:37.154Z,101351.22
2019-05-13T02:27:58.473Z,101349.40
2019-05-13T02:32:23.269Z,101342.92
2019-05-13T02:36:43.915Z,101342.11
2019-05-13T02:41:04.624Z,101357.40
2019-05-13T02:45:25.371Z,101352.75
2019-05-13T02:49:45.688Z,101356.16
2019-05-13T02:54:06.229Z,101365.36
2019-05-13T02:58:26.961Z,101363.45
2019-05-13T03:02:48.314Z,101371.00
2019-05-13T03:07:11.808Z,101366.57
2019-05-13T03:11:33.165Z,101371.52
2019-05-13T03:15:54.088Z,101367.03
2019-05-13T03:20:16.838Z,101381.39
2019-05-13T03:24:37.337Z,101379.20
2019-05-13T03:28:58.912Z,101381.74
2019-05-13T03:33:27.419Z,101376.61
2019-05-13T03:37:42.717Z,101381.56
2019-05-13T03:42:03.136Z,101378.40
2019-05-13T03:46:25.387Z,101388.16
2019-05-13T03:50:46.074Z,101394.75
2019-05-13T03:55:06.965Z,101387.20
2019-05-13T03:59:27.530Z,101404.68
2019-05-13T04:03:47.955Z,101404.56
2019-05-13T04:08:08.678Z,101408.44
2019-05-13T04:12:28.961Z,101407.86
2019-05-13T04:16:53.218Z,101413.39
2019-05-13T04:21:13.659Z,101428.00
2019-05-13T04:25:39.482Z,101422.31
2019-05-13T04:29:57.359Z,101419.47
2019-05-13T04:34:17.713Z,101428.80
2019-05-13T04:38:38.459Z,101432.27
2019-05-13T04:43:02.928Z,101433.23
2019-05-13T04:47:23.963Z,101437.42
2019-05-13T04:51:44.928Z,101434.97
2019-05-13T04:56:05.716Z,101435.05
2019-05-13T05:01:02.703Z,101430.59
2019-05-13T05:05:52.914Z,101438.34
2019-05-13T05:10:44.782Z,101434.70
2019-05-13T05:15:52.279Z,101445.23
2019-05-13T05:20:32.066Z,101438.58
2019-05-13T05:25:05.209Z,101442.04
2019-05-13T05:29:54.390Z,101441.89
2019-05-13T05:34:38.717Z,101446.33
2019-05-13T05:39:08.515Z,101452.19
2019-05-13T05:43:31.497Z,101451.06
2019-05-13T05:47:54.197Z,101441.02
2019-05-13T05:52:18.335Z,101444.17
2019-05-13T05:56:41.478Z,101446.05
2019-05-13T06:01:02.756Z,101455.95
2019-05-13T06:05:24.713Z,101454.80
2019-05-13T06:09:44.872Z,101451.45
2019-05-13T06:14:05.561Z,101461.83
2019-05-13T06:18:26.221Z,101450.16
2019-05-13T06:22:47.209Z,101452.38
2019-05-13T06:27:07.488Z,101463.63
2019-05-13T06:31:28.424Z,101462.93
2019-05-13T06:35:51.941Z,101462.93
2019-05-13T06:40:12.475Z,101464.16
2019-05-13T06:44:33.273Z,101462.92
2019-05-13T06:48:55.554Z,101469.80
2019-05-13T06:53:16.176Z,101469.22
2019-05-13T06:57:36.450Z,101471.61
2019-05-13T07:01:56.837Z,101475.07
2019-05-13T07:06:17.698Z,101475.10
2019-05-13T07:10:38.314Z,101471.30
2019-05-13T07:14:59.069Z,101465.27
2019-05-13T07:19:19.840Z,101468.27
2019-05-13T07:23:42.283Z,101464.34
2019-05-13T07:28:03.074Z,101475.55
2019-05-13T07:32:23.907Z,101476.50
2019-05-13T07:36:44.283Z,101468.69
2019-05-13T07:41:05.045Z,101468.69
2019-05-13T07:45:25.752Z,101467.08
2019-05-13T07:49:46.442Z,101472.05
2019-05-13T07:54:07.194Z,101470.99
2019-05-13T07:58:28.170Z,101470.99
2019-05-13T08:02:48.786Z,101465.73
2019-05-13T08:07:11.590Z,101471.33
2019-05-13T08:11:35.344Z,101471.33
2019-05-13T08:15:55.084Z,101471.11
2019-05-13T08:20:16.560Z,101471.11
2019-05-13T08:24:37.302Z,101462.34
2019-05-13T08:29:01.985Z,101470.44
2019-05-13T08:33:22.651Z,101466.02
2019-05-13T08:37:43.516Z,101461.75
2019-05-13T08:42:15.082Z,101458.73
2019-05-13T08:46:27.205Z,101469.32
2019-05-13T08:50:48.334Z,101467.87
2019-05-13T08:55:15.265Z,101466.76
2019-05-13T08:59:32.535Z,101463.27
2019-05-13T09:03:53.142Z,101469.88
2019-05-13T09:08:14.603Z,101465.81
2019-05-13T09:12:40.032Z,101468.45
2019-05-13T09:17:01.642Z,101459.21
2019-05-13T09:21:22.462Z,101448.76
2019-05-13T09:25:43.219Z,101456.95
2019-05-13T09:30:05.128Z,101446.84
2019-05-13T09:34:25.904Z,101456.43
2019-05-13T09:38:46.584Z,101448.33
2019-05-13T09:43:07.363Z,101451.39
2019-05-13T09:47:28.557Z,101451.33
2019-05-13T09:51:52.257Z,101453.65
2019-05-13T09:56:12.568Z,101460.70
2019-05-13T10:00:33.350Z,101452.78
2019-05-13T10:04:54.012Z,101456.48
2019-05-13T10:09:14.872Z,101446.47
2019-05-13T10:13:35.261Z,101453.59
2019-05-13T10:17:55.748Z,101450.00
2019-05-13T10:22:16.912Z,101454.50
2019-05-13T10:26:38.334Z,101449.77
2019-05-13T10:30:58.976Z,101455.35
2019-05-13T10:35:19.876Z,101446.67
2019-05-13T10:39:40.652Z,101443.50
2019-05-13T10:44:02.960Z,101439.34
2019-05-13T10:48:24.188Z,101434.14
2019-05-13T10:52:45.924Z,101438.72
2019-05-13T10:57:06.912Z,101435.38
2019-05-13T11:01:28.159Z,101434.42
2019-05-13T11:05:48.575Z,101423.25
2019-05-13T11:10:12.764Z,101425.98
2019-05-13T11:14:32.622Z,101419.14
2019-05-13T11:18:53.559Z,101412.94
2019-05-13T11:23:14.015Z,101400.91
2019-05-13T11:27:34.659Z,101403.73
2019-05-13T11:31:55.597Z,101393.55
2019-05-13T11:36:19.127Z,101376.97
2019-05-13T11:40:39.209Z,101382.56
2019-05-13T11:44:59.660Z,101393.15
2019-05-13T11:49:20.308Z,101382.67
2019-05-13T11:53:41.653Z,101391.92
2019-05-13T11:58:03.040Z,101376.25
2019-05-13T12:02:23.571Z,101372.32
2019-05-13T12:06:48.843Z,101365.66
2019-05-13T12:11:06.264Z,101370.98
2019-05-13T12:15:42.480Z,101378.75
2019-05-13T12:19:54.309Z,101364.29
2019-05-13T12:24:14.163Z,101357.27
2019-05-13T12:28:35.421Z,101347.62
2019-05-13T12:32:56.237Z,101356.38
2019-05-13T12:37:17.457Z,101347.20
2019-05-13T12:41:38.558Z,101348.51
2019-05-13T12:46:02.067Z,101332.63
2019-05-13T12:50:23.514Z,101325.30
2019-05-13T12:54:44.642Z,101330.31
2019-05-13T12:59:05.314Z,101334.92
2019-05-13T13:03:26.923Z,101333.42
2019-05-13T13:08:13.530Z,101324.23
2019-05-13T13:12:11.987Z,101315.64
2019-05-13T13:16:35.423Z,101315.27
2019-05-13T13:21:00.373Z,101314.63
2019-05-13T13:25:17.703Z,101308.77
2019-05-13T13:29:38.697Z,101307.03
2019-05-13T13:34:11.973Z,101292.62
2019-05-13T13:38:26.271Z,101303.30
2019-05-13T13:42:46.938Z,101298.13
2019-05-13T13:47:08.411Z,101287.30
2019-05-13T13:51:34.005Z,101284.60
2019-05-13T13:55:55.992Z,101279.36
2019-05-13T14:00:33.044Z,101281.50
2019-05-13T14:04:38.193Z,101273.08
2019-05-13T14:09:00.905Z,101256.17
2019-05-13T14:13:21.974Z,101255.62
2019-05-13T14:17:44.124Z,101240.22
2019-05-13T14:22:05.827Z,101256.48
2019-05-13T14:26:26.886Z,101240.78
2019-05-13T14:30:47.566Z,101244.17
2019-05-13T14:35:08.986Z,101236.87
2019-05-13T14:43:59.573Z,101225.32
2019-05-13T14:48:22.311Z,101233.34
2019-05-13T14:52:43.296Z,101240.91
2019-05-13T14:57:04.361Z,101237.51
2019-05-13T15:01:25.394Z,101229.38
2019-05-13T15:05:46.089Z,101229.40
2019-05-13T15:10:07.298Z,101231.70
2019-05-13T15:14:28.121Z,101228.61
2019-05-13T15:18:49.198Z,101223.37
2019-05-13T15:23:11.904Z,101221.75
2019-05-13T15:27:33.137Z,101215.67
2019-05-13T15:31:54.301Z,101211.66
2019-05-13T15:36:15.237Z,101215.63
2019-05-13T15:40:36.429Z,101201.75
2019-05-13T15:44:57.435Z,101198.59
2019-05-13T15:49:18.063Z,101196.98
2019-05-13T15:53:39.468Z,101210.02
2019-05-13T15:58:02.443Z,101198.95
2019-05-13T16:02:23.503Z,101190.45
2019-05-13T16:06:56.897Z,101189.05
2019-05-13T16:11:18.181Z,101180.66
2019-05-13T16:15:38.276Z,101181.38
2019-05-13T16:20:01.949Z,101186.11
2019-05-13T16:24:46.420Z,101170.81
2019-05-13T16:29:08.195Z,101169.90
2019-05-13T16:33:31.369Z,101170.58
2019-05-13T16:37:51.868Z,101179.14
2019-05-13T16:42:12.145Z,101179.17
2019-05-13T16:46:33.535Z,101180.24
2019-05-13T16:50:54.426Z,101171.06
2019-05-13T16:55:15.456Z,101166.78
2019-05-13T16:59:36.107Z,101175.20
2019-05-13T17:03:57.876Z,101181.25
2019-05-13T17:08:19.152Z,101167.64
2019-05-13T17:12:39.712Z,101168.90
2019-05-13T17:17:01.201Z,101172.77
2019-05-13T17:21:22.749Z,101170.27
2019-05-13T17:25:44.676Z,101160.97
2019-05-13T17:30:05.047Z,101166.09
2019-05-13T17:34:26.032Z,101165.56
2019-05-13T17:38:47.538Z,101157.09
2019-05-13T17:43:07.529Z,101162.06
2019-05-13T17:47:28.252Z,101155.09
2019-05-13T17:51:48.974Z,101159.48
2019-05-13T17:56:11.090Z,101159.12
2019-05-13T18:00:32.256Z,101158.58
2019-05-13T18:04:53.586Z,101155.13
2019-05-13T18:09:14.489Z,101145.83
2019-05-13T18:13:34.999Z,101148.31
2019-05-13T18:17:55.957Z,101145.20
2019-05-13T18:22:16.484Z,101137.97
2019-05-13T18:26:37.318Z,101131.73
2019-05-13T18:30:57.710Z,101128.30
2019-05-13T18:35:18.278Z,101130.30
2019-05-13T18:39:41.433Z,101133.59
2019-05-13T18:44:01.569Z,101129.75
2019-05-13T18:48:22.809Z,101141.63
2019-05-13T18:52:46.826Z,101136.70
2019-05-13T18:57:08.113Z,101139.56
2019-05-13T19:01:28.605Z,101132.89
2019-05-13T19:05:50.737Z,101141.20
2019-05-13T19:10:11.608Z,101144.23
2019-05-13T19:14:32.533Z,101139.44
2019-05-13T19:18:53.146Z,101144.00
2019-05-13T19:23:13.887Z,101144.39
2019-05-13T19:27:34.796Z,101152.11
2019-05-13T19:31:55.100Z,101150.13
2019-05-13T19:36:16.599Z,101150.13
2019-05-13T19:40:37.440Z,101158.64
2019-05-13T19:44:58.658Z,101156.47
2019-05-13T19:49:29.675Z,101158.73
2019-05-13T19:53:44.532Z,101160.57
2019-05-13T19:58:04.856Z,101154.14
2019-05-13T20:02:25.618Z,101155.05
2019-05-13T20:06:46.356Z,101141.67
2019-05-13T20:11:06.950Z,101155.03
2019-05-13T20:15:28.154Z,101148.85
2019-05-13T20:19:51.412Z,101145.89
2019-05-13T20:24:11.940Z,101152.86
2019-05-13T20:28:32.464Z,101152.09
2019-05-13T20:32:53.715Z,101142.00
2019-05-13T20:37:14.944Z,101146.23
2019-05-13T20:41:36.683Z,101149.51
2019-05-13T20:45:57.557Z,101148.94
2019-05-13T20:50:21.476Z,101152.17
2019-05-13T20:54:41.695Z,101152.17
2019-05-13T20:59:03.057Z,101153.06
2019-05-13T21:03:25.200Z,101160.75
2019-05-13T21:07:45.936Z,101161.89
2019-05-13T21:12:06.658Z,101155.77
2019-05-13T21:16:27.077Z,101171.25
2019-05-13T21:20:47.680Z,101160.09
2019-05-13T21:25:08.581Z,101158.84
2019-05-13T21:29:29.490Z,101158.84
2019-05-13T21:33:51.361Z,101147.23
2019-05-13T21:38:12.488Z,101154.27
2019-05-13T21:42:34.115Z,101148.72
2019-05-13T21:46:54.789Z,101153.51
2019-05-13T21:51:15.939Z,101151.77
2019-05-13T21:55:36.955Z,101151.77
2019-05-13T21:59:57.714Z,101148.41
2019-05-13T22:04:18.564Z,101154.54
2019-05-13T22:08:41.128Z,101154.33
2019-05-13T22:13:02.447Z,101150.80
2019-05-13T22:17:23.621Z,101151.32
2019-05-13T22:21:44.367Z,101140.76
2019-05-13T22:26:05.200Z,101140.76
2019-05-13T22:32:21.964Z,101147.29
2019-05-13T22:36:42.781Z,101140.33
2019-05-13T22:41:03.455Z,101134.27
2019-05-13T22:45:24.256Z,101131.74
2019-05-13T22:49:44.784Z,101142.41
2019-05-13T22:54:05.668Z,101143.23
2019-05-13T22:58:26.636Z,101134.82
2019-05-13T23:02:47.358Z,101135.32
2019-05-13T23:07:07.510Z,101135.32
2019-05-13T23:11:28.006Z,101135.41
2019-05-13T23:15:48.572Z,101118.27
2019-05-13T23:20:09.740Z,101118.27
2019-05-13T23:24:31.201Z,101130.12
2019-05-13T23:28:52.272Z,101122.67
2019-05-13T23:33:12.382Z,101121.33
2019-05-13T23:37:32.879Z,101116.88
2019-05-13T23:41:53.445Z,101114.91
2019-05-13T23:46:13.968Z,101100.14
2019-05-13T23:50:34.549Z,101108.52
2019-05-13T23:54:55.363Z,101100.45
2019-05-13T23:59:16.337Z,101095.43
